EXS15JG EGBB-LERS
Flight info
| Callsign | EXS15JG |
|---|---|
| Flight time | 1h 48m |
| Altitude | 35000 |
| Route | CPT UN859 SOPIL DCT BALAN DCT EVPOK DCT NARAK DCT GAI DCT LOMRA DCT ROCAN DCT PUMAL/N0361F230 N31 BERGA |
| Aircraft | B738/M-SDE2E3FGHIRWXY/LB1 |
Departure
| Time | 2026-04-24 09:30 |
|---|---|
| Airport | Birmingham Airport (EGBB) |
Arrival
| Time | 2026-04-24 11:18 |
|---|---|
| Airport | Reus Airport (LERS) |
| Time | Latitude | Longitude | Altitude | Speed | Heading |
|---|---|---|---|---|---|
| 2026-04-24 08:51 | 52.45037 | -1.73322 | 320 ft | 0 kts | 326° |
| 2026-04-24 09:18 | 52.45021 | -1.73304 | 319 ft | 3 kts | 325° |
| 2026-04-24 09:19 | 52.45007 | -1.73276 | 322 ft | 4 kts | 269° |
| 2026-04-24 09:19 | 52.45014 | -1.73236 | 321 ft | 4 kts | 238° |
| 2026-04-24 09:19 | 52.45011 | -1.73242 | 321 ft | 4 kts | 236° |
| 2026-04-24 09:19 | 52.45003 | -1.73261 | 321 ft | 0 kts | 236° |
| 2026-04-24 09:23 | 52.44995 | -1.73281 | 322 ft | 6 kts | 236° |
| 2026-04-24 09:23 | 52.44954 | -1.73379 | 322 ft | 15 kts | 236° |
| 2026-04-24 09:23 | 52.44897 | -1.73536 | 322 ft | 13 kts | 250° |
| 2026-04-24 09:23 | 52.44865 | -1.73644 | 322 ft | 7 kts | 253° |
| 2026-04-24 09:24 | 52.44900 | -1.73733 | 322 ft | 13 kts | 328° |
| 2026-04-24 09:24 | 52.44988 | -1.73828 | 322 ft | 14 kts | 325° |
| 2026-04-24 09:24 | 52.45067 | -1.73923 | 322 ft | 17 kts | 323° |
| 2026-04-24 09:24 | 52.45171 | -1.74032 | 321 ft | 20 kts | 326° |
| 2026-04-24 09:25 | 52.45295 | -1.74172 | 322 ft | 22 kts | 326° |
| 2026-04-24 09:25 | 52.45397 | -1.74307 | 322 ft | 17 kts | 304° |
| 2026-04-24 09:25 | 52.45449 | -1.74485 | 321 ft | 14 kts | 298° |
| 2026-04-24 09:25 | 52.45487 | -1.74579 | 322 ft | 11 kts | 317° |
| 2026-04-24 09:26 | 52.45566 | -1.74673 | 320 ft | 16 kts | 326° |
| 2026-04-24 09:26 | 52.45644 | -1.74760 | 314 ft | 12 kts | 326° |
| 2026-04-24 09:26 | 52.45732 | -1.74856 | 309 ft | 18 kts | 326° |
| 2026-04-24 09:26 | 52.45826 | -1.74961 | 307 ft | 18 kts | 326° |
| 2026-04-24 09:27 | 52.45907 | -1.75052 | 306 ft | 17 kts | 326° |
| 2026-04-24 09:27 | 52.46016 | -1.75174 | 304 ft | 21 kts | 325° |
| 2026-04-24 09:27 | 52.46155 | -1.75325 | 302 ft | 25 kts | 325° |
| 2026-04-24 09:27 | 52.46268 | -1.75455 | 303 ft | 18 kts | 325° |
| 2026-04-24 09:28 | 52.46383 | -1.75581 | 300 ft | 23 kts | 325° |
| 2026-04-24 09:28 | 52.46504 | -1.75715 | 303 ft | 18 kts | 325° |
| 2026-04-24 09:28 | 52.46589 | -1.75811 | 305 ft | 15 kts | 324° |
| 2026-04-24 09:28 | 52.46620 | -1.75950 | 307 ft | 16 kts | 243° |
| 2026-04-24 09:29 | 52.46568 | -1.76086 | 307 ft | 6 kts | 232° |
| 2026-04-24 09:29 | 52.46526 | -1.76072 | 306 ft | 8 kts | 147° |
| 2026-04-24 09:29 | 52.46404 | -1.75936 | 308 ft | 49 kts | 145° |
| 2026-04-24 09:29 | 52.45933 | -1.75409 | 316 ft | 113 kts | 146° |
| 2026-04-24 09:30 | 52.45143 | -1.74499 | 359 ft | 160 kts | 140° |
| 2026-04-24 09:30 | 52.43904 | -1.73000 | 1103 ft | 167 kts | 143° |
| 2026-04-24 09:30 | 52.43261 | -1.72293 | 1573 ft | 170 kts | 144° |
| 2026-04-24 09:30 | 52.42206 | -1.71131 | 1976 ft | 197 kts | 144° |
| 2026-04-24 09:31 | 52.40968 | -1.70031 | 2483 ft | 208 kts | 160° |
| 2026-04-24 09:31 | 52.39532 | -1.69440 | 3049 ft | 216 kts | 164° |
| 2026-04-24 09:31 | 52.38072 | -1.68837 | 3831 ft | 216 kts | 160° |
| 2026-04-24 09:31 | 52.36689 | -1.67874 | 4623 ft | 217 kts | 152° |
| 2026-04-24 09:32 | 52.35341 | -1.66743 | 5367 ft | 219 kts | 149° |
| 2026-04-24 09:32 | 52.33911 | -1.65617 | 5739 ft | 241 kts | 155° |
| 2026-04-24 09:32 | 52.32280 | -1.64546 | 6108 ft | 261 kts | 156° |
| 2026-04-24 09:32 | 52.30567 | -1.63438 | 6770 ft | 268 kts | 156° |
| 2026-04-24 09:33 | 52.28828 | -1.62308 | 7494 ft | 271 kts | 156° |
| 2026-04-24 09:33 | 52.27069 | -1.61156 | 8210 ft | 274 kts | 156° |
| 2026-04-24 09:33 | 52.25295 | -1.59991 | 8992 ft | 276 kts | 155° |
| 2026-04-24 09:33 | 52.23479 | -1.58912 | 9710 ft | 281 kts | 160° |
| 2026-04-24 09:34 | 52.21598 | -1.57971 | 10411 ft | 285 kts | 160° |
| 2026-04-24 09:34 | 52.19663 | -1.57019 | 10787 ft | 301 kts | 160° |
| 2026-04-24 09:34 | 52.17583 | -1.55987 | 10960 ft | 322 kts | 160° |
| 2026-04-24 09:34 | 52.15396 | -1.54892 | 11375 ft | 334 kts | 161° |
| 2026-04-24 09:35 | 52.13162 | -1.53772 | 12014 ft | 338 kts | 161° |
| 2026-04-24 09:35 | 52.10912 | -1.52640 | 12754 ft | 339 kts | 161° |
| 2026-04-24 09:35 | 52.08650 | -1.51503 | 13488 ft | 342 kts | 161° |
| 2026-04-24 09:35 | 52.06367 | -1.50356 | 14206 ft | 345 kts | 161° |
| 2026-04-24 09:36 | 52.04061 | -1.49198 | 14878 ft | 348 kts | 161° |
| 2026-04-24 09:36 | 52.01745 | -1.48037 | 15627 ft | 348 kts | 161° |
| 2026-04-24 09:36 | 51.99435 | -1.46880 | 16395 ft | 348 kts | 162° |
| 2026-04-24 09:36 | 51.97106 | -1.45714 | 17048 ft | 352 kts | 162° |
| 2026-04-24 09:37 | 51.94748 | -1.44535 | 17689 ft | 356 kts | 163° |
| 2026-04-24 09:37 | 51.92374 | -1.43349 | 18381 ft | 359 kts | 163° |
| 2026-04-24 09:37 | 51.89979 | -1.42154 | 19038 ft | 361 kts | 163° |
| 2026-04-24 09:37 | 51.87575 | -1.40956 | 19635 ft | 363 kts | 163° |
| 2026-04-24 09:38 | 51.85147 | -1.39747 | 20216 ft | 366 kts | 163° |
| 2026-04-24 09:38 | 51.82706 | -1.38533 | 20790 ft | 368 kts | 163° |
| 2026-04-24 09:38 | 51.80249 | -1.37312 | 21355 ft | 371 kts | 163° |
| 2026-04-24 09:38 | 51.77774 | -1.36084 | 21985 ft | 372 kts | 164° |
| 2026-04-24 09:39 | 51.75298 | -1.34856 | 22590 ft | 373 kts | 164° |
| 2026-04-24 09:39 | 51.72804 | -1.33622 | 23110 ft | 377 kts | 164° |
| 2026-04-24 09:39 | 51.70290 | -1.32378 | 23622 ft | 380 kts | 164° |
| 2026-04-24 09:39 | 51.67753 | -1.31125 | 24091 ft | 382 kts | 164° |
| 2026-04-24 09:40 | 51.65199 | -1.29865 | 24477 ft | 386 kts | 165° |
| 2026-04-24 09:40 | 51.62610 | -1.28590 | 24813 ft | 391 kts | 165° |
| 2026-04-24 09:40 | 51.60026 | -1.27318 | 25154 ft | 396 kts | 165° |
| 2026-04-24 09:40 | 51.57344 | -1.25998 | 25523 ft | 400 kts | 165° |
| 2026-04-24 09:41 | 51.54707 | -1.24702 | 25834 ft | 404 kts | 166° |
| 2026-04-24 09:41 | 51.51999 | -1.23374 | 26158 ft | 409 kts | 166° |
| 2026-04-24 09:41 | 51.49266 | -1.22032 | 26505 ft | 413 kts | 165° |
| 2026-04-24 09:41 | 51.46578 | -1.20325 | 26836 ft | 420 kts | 158° |
| 2026-04-24 09:42 | 51.43940 | -1.18260 | 27159 ft | 424 kts | 157° |
| 2026-04-24 09:42 | 51.41277 | -1.16179 | 27475 ft | 428 kts | 158° |
| 2026-04-24 09:42 | 51.38575 | -1.14135 | 27772 ft | 432 kts | 159° |
| 2026-04-24 09:42 | 51.35836 | -1.12117 | 28080 ft | 435 kts | 159° |
| 2026-04-24 09:43 | 51.33070 | -1.10101 | 28363 ft | 439 kts | 159° |
| 2026-04-24 09:43 | 51.30280 | -1.08069 | 28630 ft | 443 kts | 159° |
| 2026-04-24 09:43 | 51.27465 | -1.06015 | 28919 ft | 446 kts | 159° |
| 2026-04-24 09:43 | 51.24634 | -1.03948 | 29235 ft | 449 kts | 159° |
| 2026-04-24 09:44 | 51.21785 | -1.01873 | 29537 ft | 452 kts | 159° |
| 2026-04-24 09:44 | 51.18915 | -0.99789 | 29819 ft | 455 kts | 159° |
| 2026-04-24 09:44 | 51.16019 | -0.97689 | 30095 ft | 458 kts | 159° |
| 2026-04-24 09:44 | 51.13110 | -0.95581 | 30366 ft | 461 kts | 159° |
| 2026-04-24 09:45 | 51.10185 | -0.93464 | 30613 ft | 463 kts | 159° |
| 2026-04-24 09:45 | 51.07252 | -0.91342 | 30921 ft | 463 kts | 159° |
| 2026-04-24 09:45 | 51.04314 | -0.89220 | 31217 ft | 464 kts | 159° |
| 2026-04-24 09:45 | 51.01373 | -0.87098 | 31539 ft | 464 kts | 159° |
| 2026-04-24 09:46 | 50.98439 | -0.84984 | 31909 ft | 462 kts | 159° |
| 2026-04-24 09:46 | 50.95514 | -0.82880 | 32274 ft | 461 kts | 159° |
| 2026-04-24 09:46 | 50.92599 | -0.80786 | 32580 ft | 461 kts | 159° |
| 2026-04-24 09:46 | 50.89676 | -0.78690 | 32890 ft | 460 kts | 159° |
| 2026-04-24 09:47 | 50.86763 | -0.76604 | 33211 ft | 459 kts | 159° |
| 2026-04-24 09:47 | 50.83921 | -0.74311 | 33606 ft | 459 kts | 152° |
| 2026-04-24 09:47 | 50.81217 | -0.71626 | 33989 ft | 458 kts | 149° |
| 2026-04-24 09:47 | 50.78554 | -0.68859 | 34271 ft | 458 kts | 149° |
| 2026-04-24 09:48 | 50.75901 | -0.66073 | 34520 ft | 458 kts | 149° |
| 2026-04-24 09:48 | 50.73245 | -0.63301 | 34799 ft | 457 kts | 149° |
| 2026-04-24 09:48 | 50.70592 | -0.60559 | 35112 ft | 454 kts | 149° |
| 2026-04-24 09:48 | 50.67947 | -0.57851 | 35349 ft | 454 kts | 150° |
| 2026-04-24 09:49 | 50.62585 | -0.52418 | 35327 ft | 458 kts | 150° |
| 2026-04-24 09:49 | 50.57254 | -0.47043 | 35316 ft | 451 kts | 150° |
| 2026-04-24 09:50 | 50.51984 | -0.41743 | 35333 ft | 450 kts | 150° |
| 2026-04-24 09:50 | 50.46708 | -0.36453 | 35336 ft | 450 kts | 150° |
| 2026-04-24 09:51 | 50.41423 | -0.31163 | 35316 ft | 451 kts | 150° |
| 2026-04-24 09:51 | 50.36165 | -0.25917 | 35330 ft | 451 kts | 149° |
| 2026-04-24 09:52 | 50.30863 | -0.20636 | 35317 ft | 452 kts | 150° |
| 2026-04-24 09:52 | 50.25553 | -0.15364 | 35321 ft | 452 kts | 150° |
| 2026-04-24 09:53 | 50.20232 | -0.10096 | 35319 ft | 453 kts | 150° |
| 2026-04-24 09:53 | 50.14943 | -0.04871 | 35316 ft | 453 kts | 150° |
| 2026-04-24 09:54 | 50.09500 | 0.00025 | 35314 ft | 450 kts | 160° |
| 2026-04-24 09:54 | 50.03540 | 0.02696 | 35321 ft | 445 kts | 169° |
| 2026-04-24 09:55 | 49.97508 | 0.04950 | 35311 ft | 446 kts | 168° |
| 2026-04-24 09:55 | 49.91491 | 0.07263 | 35302 ft | 445 kts | 168° |
| 2026-04-24 09:56 | 49.85479 | 0.09611 | 35293 ft | 445 kts | 168° |
| 2026-04-24 09:56 | 49.79535 | 0.11932 | 35285 ft | 445 kts | 167° |
| 2026-04-24 09:57 | 49.73487 | 0.14287 | 35270 ft | 446 kts | 168° |
| 2026-04-24 09:57 | 49.67472 | 0.16622 | 35271 ft | 446 kts | 167° |
| 2026-04-24 09:58 | 49.61469 | 0.19041 | 35266 ft | 446 kts | 167° |
| 2026-04-24 09:58 | 49.55464 | 0.21491 | 35266 ft | 446 kts | 166° |
| 2026-04-24 09:59 | 49.49455 | 0.23925 | 35268 ft | 448 kts | 166° |
| 2026-04-24 09:59 | 49.46436 | 0.25142 | 35386 ft | 450 kts | 167° |
| 2026-04-24 09:59 | 49.43408 | 0.26361 | 35659 ft | 449 kts | 167° |
| 2026-04-24 10:00 | 49.40436 | 0.27555 | 35987 ft | 446 kts | 167° |
| 2026-04-24 10:00 | 49.37444 | 0.28757 | 36304 ft | 444 kts | 167° |
| 2026-04-24 10:00 | 49.34466 | 0.29952 | 36599 ft | 442 kts | 166° |
| 2026-04-24 10:00 | 49.31493 | 0.31142 | 36831 ft | 441 kts | 167° |
| 2026-04-24 10:01 | 49.28522 | 0.32352 | 37007 ft | 442 kts | 166° |
| 2026-04-24 10:01 | 49.25554 | 0.33596 | 37202 ft | 442 kts | 166° |
| 2026-04-24 10:01 | 49.19596 | 0.36120 | 37256 ft | 446 kts | 166° |
| 2026-04-24 10:02 | 49.14632 | 0.38215 | 37244 ft | 444 kts | 165° |
| 2026-04-24 10:02 | 49.08717 | 0.40696 | 37243 ft | 439 kts | 166° |
| 2026-04-24 10:03 | 49.02836 | 0.43150 | 37233 ft | 438 kts | 165° |
| 2026-04-24 10:03 | 48.96966 | 0.45594 | 37254 ft | 437 kts | 165° |
| 2026-04-24 10:04 | 48.91101 | 0.48030 | 37253 ft | 437 kts | 165° |
| 2026-04-24 10:04 | 48.85224 | 0.50467 | 37246 ft | 438 kts | 165° |
| 2026-04-24 10:05 | 48.79335 | 0.52901 | 37244 ft | 439 kts | 165° |
| 2026-04-24 10:05 | 48.73413 | 0.55257 | 37230 ft | 440 kts | 166° |
| 2026-04-24 10:06 | 48.64493 | 0.58715 | 37225 ft | 442 kts | 166° |
| 2026-04-24 10:07 | 48.58522 | 0.61040 | 37234 ft | 444 kts | 166° |
| 2026-04-24 10:07 | 48.52545 | 0.63365 | 37228 ft | 444 kts | 166° |
| 2026-04-24 10:08 | 48.46562 | 0.65763 | 37217 ft | 445 kts | 165° |
| 2026-04-24 10:08 | 48.40583 | 0.68211 | 37217 ft | 446 kts | 165° |
| 2026-04-24 10:09 | 48.34593 | 0.70646 | 37217 ft | 446 kts | 165° |
| 2026-04-24 10:09 | 48.28638 | 0.73053 | 37217 ft | 446 kts | 165° |
| 2026-04-24 10:10 | 48.22644 | 0.75458 | 37225 ft | 446 kts | 165° |
| 2026-04-24 10:10 | 48.16634 | 0.77823 | 37211 ft | 447 kts | 165° |
| 2026-04-24 10:11 | 48.10618 | 0.80182 | 37217 ft | 447 kts | 165° |
| 2026-04-24 10:11 | 48.04598 | 0.82541 | 37206 ft | 447 kts | 165° |
| 2026-04-24 10:12 | 47.98576 | 0.84899 | 37185 ft | 448 kts | 165° |
| 2026-04-24 10:12 | 47.92546 | 0.87254 | 37184 ft | 449 kts | 165° |
| 2026-04-24 10:13 | 47.86498 | 0.89611 | 37193 ft | 450 kts | 165° |
| 2026-04-24 10:13 | 47.80427 | 0.91968 | 37189 ft | 451 kts | 165° |
| 2026-04-24 10:14 | 47.74333 | 0.94324 | 37184 ft | 453 kts | 165° |
| 2026-04-24 10:14 | 47.68222 | 0.96682 | 37174 ft | 455 kts | 165° |
| 2026-04-24 10:15 | 47.62094 | 0.99042 | 37177 ft | 455 kts | 165° |
| 2026-04-24 10:15 | 47.55959 | 1.01400 | 37174 ft | 456 kts | 165° |
| 2026-04-24 10:16 | 47.49822 | 1.03753 | 37177 ft | 456 kts | 165° |
| 2026-04-24 10:16 | 47.43670 | 1.06031 | 37165 ft | 456 kts | 170° |
| 2026-04-24 10:17 | 47.37356 | 1.06452 | 37187 ft | 454 kts | 182° |
| 2026-04-24 10:17 | 47.31078 | 1.06192 | 37173 ft | 454 kts | 182° |
| 2026-04-24 10:18 | 47.24754 | 1.05992 | 37166 ft | 455 kts | 181° |
| 2026-04-24 10:18 | 47.18431 | 1.05846 | 37169 ft | 454 kts | 181° |
| 2026-04-24 10:19 | 47.12104 | 1.05710 | 37153 ft | 454 kts | 181° |
| 2026-04-24 10:19 | 47.05784 | 1.05571 | 37163 ft | 454 kts | 181° |
| 2026-04-24 10:20 | 46.99459 | 1.05400 | 37160 ft | 454 kts | 182° |
| 2026-04-24 10:20 | 46.93137 | 1.05116 | 37162 ft | 455 kts | 182° |
| 2026-04-24 10:21 | 46.86810 | 1.04821 | 37155 ft | 455 kts | 182° |
| 2026-04-24 10:21 | 46.80488 | 1.04541 | 37154 ft | 455 kts | 182° |
| 2026-04-24 10:22 | 46.74163 | 1.04268 | 37154 ft | 454 kts | 182° |
| 2026-04-24 10:22 | 46.67844 | 1.03997 | 37152 ft | 454 kts | 182° |
| 2026-04-24 10:23 | 46.61528 | 1.03725 | 37149 ft | 454 kts | 182° |
| 2026-04-24 10:23 | 46.55212 | 1.03455 | 37142 ft | 454 kts | 182° |
| 2026-04-24 10:24 | 46.48925 | 1.04006 | 37131 ft | 454 kts | 168° |
| 2026-04-24 10:24 | 46.42827 | 1.06100 | 37134 ft | 453 kts | 166° |
| 2026-04-24 10:25 | 46.36695 | 1.08246 | 37126 ft | 453 kts | 167° |
| 2026-04-24 10:25 | 46.30557 | 1.10332 | 37130 ft | 453 kts | 167° |
| 2026-04-24 10:26 | 46.24425 | 1.12376 | 37130 ft | 452 kts | 167° |
| 2026-04-24 10:26 | 46.18302 | 1.14405 | 37127 ft | 452 kts | 167° |
| 2026-04-24 10:27 | 46.12179 | 1.16430 | 37128 ft | 451 kts | 167° |
| 2026-04-24 10:27 | 46.06061 | 1.18450 | 37129 ft | 451 kts | 167° |
| 2026-04-24 10:28 | 45.99948 | 1.20465 | 37126 ft | 451 kts | 168° |
| 2026-04-24 10:28 | 45.93830 | 1.22477 | 37130 ft | 451 kts | 168° |
| 2026-04-24 10:29 | 45.87720 | 1.24481 | 37128 ft | 450 kts | 168° |
| 2026-04-24 10:29 | 45.81615 | 1.26480 | 37137 ft | 450 kts | 168° |
| 2026-04-24 10:30 | 45.75511 | 1.28473 | 37113 ft | 450 kts | 168° |
| 2026-04-24 10:30 | 45.69409 | 1.30462 | 37131 ft | 449 kts | 168° |
| 2026-04-24 10:31 | 45.63314 | 1.32444 | 37123 ft | 449 kts | 168° |
| 2026-04-24 10:31 | 45.57214 | 1.34423 | 37111 ft | 449 kts | 168° |
| 2026-04-24 10:32 | 45.51120 | 1.36397 | 37125 ft | 449 kts | 168° |
| 2026-04-24 10:32 | 45.45032 | 1.38363 | 37114 ft | 449 kts | 168° |
| 2026-04-24 10:33 | 45.38938 | 1.40327 | 37116 ft | 449 kts | 168° |
| 2026-04-24 10:33 | 45.32854 | 1.42284 | 37126 ft | 448 kts | 168° |
| 2026-04-24 10:34 | 45.26773 | 1.44236 | 37124 ft | 448 kts | 168° |
| 2026-04-24 10:34 | 45.20688 | 1.46185 | 37129 ft | 448 kts | 168° |
| 2026-04-24 10:35 | 45.14606 | 1.48130 | 37126 ft | 448 kts | 168° |
| 2026-04-24 10:35 | 45.08523 | 1.50070 | 37136 ft | 448 kts | 168° |
| 2026-04-24 10:36 | 45.02443 | 1.52005 | 37129 ft | 448 kts | 168° |
| 2026-04-24 10:36 | 44.96362 | 1.53936 | 37114 ft | 448 kts | 168° |
| 2026-04-24 10:37 | 44.90277 | 1.55864 | 37111 ft | 448 kts | 168° |
| 2026-04-24 10:37 | 44.84195 | 1.57787 | 37122 ft | 448 kts | 168° |
| 2026-04-24 10:38 | 44.78104 | 1.59709 | 37109 ft | 449 kts | 168° |
| 2026-04-24 10:38 | 44.72043 | 1.61617 | 37107 ft | 449 kts | 168° |
| 2026-04-24 10:39 | 44.65941 | 1.63535 | 37118 ft | 450 kts | 168° |
| 2026-04-24 10:39 | 44.59832 | 1.65450 | 37111 ft | 450 kts | 168° |
| 2026-04-24 10:40 | 44.53726 | 1.67360 | 37114 ft | 450 kts | 168° |
| 2026-04-24 10:40 | 44.47617 | 1.69266 | 37122 ft | 450 kts | 168° |
| 2026-04-24 10:41 | 44.41508 | 1.71170 | 37117 ft | 449 kts | 168° |
| 2026-04-24 10:41 | 44.35405 | 1.73068 | 37111 ft | 449 kts | 168° |
| 2026-04-24 10:42 | 44.29302 | 1.74952 | 37103 ft | 449 kts | 169° |
| 2026-04-24 10:42 | 44.23157 | 1.76418 | 37109 ft | 448 kts | 172° |
| 2026-04-24 10:43 | 44.17003 | 1.77691 | 37100 ft | 447 kts | 172° |
| 2026-04-24 10:43 | 44.10854 | 1.79008 | 37103 ft | 447 kts | 172° |
| 2026-04-24 10:44 | 44.04711 | 1.80357 | 37102 ft | 447 kts | 172° |
| 2026-04-24 10:44 | 43.98617 | 1.81695 | 37100 ft | 446 kts | 172° |
| 2026-04-24 10:45 | 43.92470 | 1.82850 | 37106 ft | 445 kts | 176° |
| 2026-04-24 10:45 | 43.86291 | 1.83421 | 37099 ft | 445 kts | 177° |
| 2026-04-24 10:46 | 43.80120 | 1.83923 | 37091 ft | 444 kts | 177° |
| 2026-04-24 10:46 | 43.73952 | 1.84485 | 37104 ft | 444 kts | 176° |
| 2026-04-24 10:47 | 43.67801 | 1.85078 | 37094 ft | 444 kts | 176° |
| 2026-04-24 10:47 | 43.61636 | 1.85678 | 37096 ft | 444 kts | 176° |
| 2026-04-24 10:48 | 43.55479 | 1.86273 | 37109 ft | 443 kts | 176° |
| 2026-04-24 10:48 | 43.49325 | 1.86867 | 37097 ft | 444 kts | 177° |
| 2026-04-24 10:49 | 43.43202 | 1.87455 | 37088 ft | 435 kts | 176° |
| 2026-04-24 10:49 | 43.40236 | 1.87741 | 37073 ft | 420 kts | 176° |
| 2026-04-24 10:49 | 43.37370 | 1.88016 | 37088 ft | 405 kts | 176° |
| 2026-04-24 10:50 | 43.31819 | 1.88548 | 37065 ft | 401 kts | 176° |
| 2026-04-24 10:50 | 43.27189 | 1.88993 | 36921 ft | 407 kts | 176° |
| 2026-04-24 10:50 | 43.24314 | 1.89268 | 36655 ft | 419 kts | 176° |
| 2026-04-24 10:51 | 43.21339 | 1.89553 | 36120 ft | 438 kts | 176° |
| 2026-04-24 10:51 | 43.18248 | 1.89849 | 35602 ft | 452 kts | 176° |
| 2026-04-24 10:51 | 43.15102 | 1.90151 | 34971 ft | 453 kts | 176° |
| 2026-04-24 10:51 | 43.11952 | 1.90453 | 34365 ft | 454 kts | 176° |
| 2026-04-24 10:52 | 43.08806 | 1.90755 | 33836 ft | 452 kts | 176° |
| 2026-04-24 10:52 | 43.05678 | 1.91055 | 33341 ft | 449 kts | 176° |
| 2026-04-24 10:52 | 43.02574 | 1.91352 | 32862 ft | 446 kts | 176° |
| 2026-04-24 10:52 | 42.99494 | 1.91646 | 32422 ft | 442 kts | 176° |
| 2026-04-24 10:53 | 42.96438 | 1.91937 | 32001 ft | 438 kts | 176° |
| 2026-04-24 10:53 | 42.93408 | 1.92225 | 31576 ft | 435 kts | 176° |
| 2026-04-24 10:53 | 42.90394 | 1.92512 | 31152 ft | 432 kts | 176° |
| 2026-04-24 10:53 | 42.87406 | 1.92796 | 30738 ft | 429 kts | 176° |
| 2026-04-24 10:54 | 42.84436 | 1.93078 | 30319 ft | 427 kts | 176° |
| 2026-04-24 10:54 | 42.81485 | 1.93358 | 29857 ft | 424 kts | 176° |
| 2026-04-24 10:54 | 42.78550 | 1.93636 | 29392 ft | 421 kts | 176° |
| 2026-04-24 10:54 | 42.75639 | 1.93912 | 28945 ft | 418 kts | 176° |
| 2026-04-24 10:55 | 42.72755 | 1.94185 | 28518 ft | 414 kts | 176° |
| 2026-04-24 10:55 | 42.69890 | 1.94455 | 28083 ft | 411 kts | 176° |
| 2026-04-24 10:55 | 42.67050 | 1.94737 | 27668 ft | 408 kts | 175° |
| 2026-04-24 10:55 | 42.64268 | 1.95187 | 27153 ft | 408 kts | 172° |
| 2026-04-24 10:56 | 42.61432 | 1.95763 | 26734 ft | 405 kts | 172° |
| 2026-04-24 10:56 | 42.58694 | 1.96351 | 26309 ft | 403 kts | 171° |
| 2026-04-24 10:56 | 42.55936 | 1.96938 | 25879 ft | 401 kts | 172° |
| 2026-04-24 10:56 | 42.53206 | 1.97504 | 25629 ft | 393 kts | 172° |
| 2026-04-24 10:57 | 42.50508 | 1.98052 | 25234 ft | 391 kts | 172° |
| 2026-04-24 10:57 | 42.47820 | 1.98590 | 24762 ft | 391 kts | 172° |
| 2026-04-24 10:57 | 42.45103 | 1.99130 | 24167 ft | 396 kts | 172° |
| 2026-04-24 10:57 | 42.42377 | 1.99672 | 23685 ft | 396 kts | 172° |
| 2026-04-24 10:58 | 42.39653 | 2.00213 | 23174 ft | 395 kts | 172° |
| 2026-04-24 10:58 | 42.36937 | 2.00751 | 22732 ft | 393 kts | 173° |
| 2026-04-24 10:58 | 42.34236 | 2.01179 | 22288 ft | 390 kts | 175° |
| 2026-04-24 10:58 | 42.31539 | 2.01499 | 21858 ft | 387 kts | 176° |
| 2026-04-24 10:59 | 42.28868 | 2.01793 | 21454 ft | 384 kts | 176° |
| 2026-04-24 10:59 | 42.26210 | 2.02097 | 21080 ft | 381 kts | 176° |
| 2026-04-24 10:59 | 42.23580 | 2.02414 | 20665 ft | 379 kts | 175° |
| 2026-04-24 10:59 | 42.20961 | 2.02735 | 20263 ft | 377 kts | 175° |
| 2026-04-24 11:00 | 42.18364 | 2.02691 | 19828 ft | 373 kts | 194° |
| 2026-04-24 11:00 | 42.15981 | 2.01449 | 19476 ft | 365 kts | 213° |
| 2026-04-24 11:00 | 42.14005 | 1.99348 | 19107 ft | 360 kts | 224° |
| 2026-04-24 11:00 | 42.12184 | 1.97033 | 18675 ft | 360 kts | 225° |
| 2026-04-24 11:01 | 42.10386 | 1.94703 | 18271 ft | 358 kts | 226° |
| 2026-04-24 11:01 | 42.08595 | 1.92391 | 17853 ft | 356 kts | 225° |
| 2026-04-24 11:01 | 42.06806 | 1.90101 | 17436 ft | 353 kts | 225° |
| 2026-04-24 11:01 | 42.05025 | 1.87841 | 17049 ft | 350 kts | 225° |
| 2026-04-24 11:02 | 42.03260 | 1.85613 | 16670 ft | 347 kts | 225° |
| 2026-04-24 11:02 | 42.01503 | 1.83401 | 16295 ft | 345 kts | 225° |
| 2026-04-24 11:02 | 41.99760 | 1.81209 | 15926 ft | 342 kts | 225° |
| 2026-04-24 11:02 | 41.98027 | 1.79033 | 15556 ft | 340 kts | 225° |
| 2026-04-24 11:03 | 41.96305 | 1.76874 | 15194 ft | 338 kts | 225° |
| 2026-04-24 11:03 | 41.94502 | 1.74861 | 14816 ft | 337 kts | 218° |
| 2026-04-24 11:03 | 41.92589 | 1.73040 | 14458 ft | 336 kts | 217° |
| 2026-04-24 11:03 | 41.90667 | 1.71275 | 14081 ft | 334 kts | 217° |
| 2026-04-24 11:04 | 41.88755 | 1.69513 | 13699 ft | 333 kts | 217° |
| 2026-04-24 11:04 | 41.86861 | 1.67747 | 13305 ft | 331 kts | 217° |
| 2026-04-24 11:04 | 41.84981 | 1.65978 | 12917 ft | 329 kts | 217° |
| 2026-04-24 11:04 | 41.83121 | 1.64216 | 12547 ft | 326 kts | 217° |
| 2026-04-24 11:05 | 41.81279 | 1.62467 | 12194 ft | 324 kts | 217° |
| 2026-04-24 11:05 | 41.79447 | 1.60725 | 11837 ft | 322 kts | 217° |
| 2026-04-24 11:05 | 41.77628 | 1.58996 | 11482 ft | 320 kts | 217° |
| 2026-04-24 11:05 | 41.75835 | 1.57295 | 11320 ft | 311 kts | 217° |
| 2026-04-24 11:06 | 41.74091 | 1.55652 | 11180 ft | 302 kts | 215° |
| 2026-04-24 11:06 | 41.72181 | 1.54542 | 10945 ft | 302 kts | 194° |
| 2026-04-24 11:06 | 41.70127 | 1.54029 | 10709 ft | 298 kts | 192° |
| 2026-04-24 11:06 | 41.68099 | 1.53547 | 10449 ft | 295 kts | 192° |
| 2026-04-24 11:07 | 41.64105 | 1.52573 | 9952 ft | 289 kts | 193° |
| 2026-04-24 11:07 | 41.62138 | 1.52080 | 9687 ft | 286 kts | 193° |
| 2026-04-24 11:07 | 41.60192 | 1.51587 | 9423 ft | 283 kts | 193° |
| 2026-04-24 11:08 | 41.58272 | 1.51099 | 9174 ft | 279 kts | 193° |
| 2026-04-24 11:08 | 41.56374 | 1.50618 | 8935 ft | 275 kts | 193° |
| 2026-04-24 11:08 | 41.54493 | 1.50227 | 8686 ft | 274 kts | 182° |
| 2026-04-24 11:08 | 41.52605 | 1.50523 | 8468 ft | 272 kts | 171° |
| 2026-04-24 11:09 | 41.50747 | 1.50977 | 8234 ft | 271 kts | 171° |
| 2026-04-24 11:09 | 41.48924 | 1.51423 | 8004 ft | 270 kts | 171° |
| 2026-04-24 11:09 | 41.47084 | 1.51862 | 7773 ft | 269 kts | 171° |
| 2026-04-24 11:09 | 41.45243 | 1.52291 | 7546 ft | 268 kts | 171° |
| 2026-04-24 11:10 | 41.43411 | 1.52712 | 7313 ft | 267 kts | 171° |
| 2026-04-24 11:10 | 41.41585 | 1.53127 | 7090 ft | 265 kts | 172° |
| 2026-04-24 11:10 | 41.39768 | 1.53535 | 6854 ft | 264 kts | 172° |
| 2026-04-24 11:10 | 41.37959 | 1.53940 | 6548 ft | 265 kts | 172° |
| 2026-04-24 11:11 | 41.36136 | 1.54348 | 6244 ft | 265 kts | 171° |
| 2026-04-24 11:11 | 41.34315 | 1.54623 | 5964 ft | 262 kts | 186° |
| 2026-04-24 11:11 | 41.32615 | 1.53833 | 5743 ft | 259 kts | 207° |
| 2026-04-24 11:11 | 41.31012 | 1.52743 | 5460 ft | 257 kts | 206° |
| 2026-04-24 11:12 | 41.29433 | 1.51707 | 5211 ft | 250 kts | 205° |
| 2026-04-24 11:12 | 41.27885 | 1.50715 | 4969 ft | 245 kts | 204° |
| 2026-04-24 11:12 | 41.26357 | 1.49746 | 4704 ft | 241 kts | 204° |
| 2026-04-24 11:12 | 41.24864 | 1.48799 | 4460 ft | 236 kts | 205° |
| 2026-04-24 11:13 | 41.23642 | 1.47424 | 4236 ft | 231 kts | 239° |
| 2026-04-24 11:13 | 41.23072 | 1.45495 | 4027 ft | 218 kts | 248° |
| 2026-04-24 11:13 | 41.22563 | 1.43675 | 3913 ft | 203 kts | 248° |
| 2026-04-24 11:13 | 41.22080 | 1.41955 | 3882 ft | 194 kts | 247° |
| 2026-04-24 11:14 | 41.21611 | 1.40321 | 3687 ft | 186 kts | 246° |
| 2026-04-24 11:14 | 41.21145 | 1.38726 | 3458 ft | 185 kts | 246° |
| 2026-04-24 11:14 | 41.20677 | 1.37129 | 3197 ft | 185 kts | 246° |
| 2026-04-24 11:14 | 41.20214 | 1.35540 | 2953 ft | 184 kts | 246° |
| 2026-04-24 11:15 | 41.19754 | 1.33960 | 2713 ft | 182 kts | 246° |
| 2026-04-24 11:15 | 41.19299 | 1.32404 | 2480 ft | 180 kts | 247° |
| 2026-04-24 11:15 | 41.18848 | 1.30853 | 2221 ft | 180 kts | 247° |
| 2026-04-24 11:15 | 41.18406 | 1.29331 | 1994 ft | 179 kts | 248° |
| 2026-04-24 11:16 | 41.17955 | 1.27785 | 1730 ft | 179 kts | 247° |
| 2026-04-24 11:16 | 41.17520 | 1.26288 | 1514 ft | 169 kts | 247° |
| 2026-04-24 11:16 | 41.17113 | 1.24886 | 1309 ft | 155 kts | 247° |
| 2026-04-24 11:16 | 41.16732 | 1.23582 | 1097 ft | 150 kts | 246° |
| 2026-04-24 11:17 | 41.16351 | 1.22267 | 890 ft | 154 kts | 246° |
| 2026-04-24 11:17 | 41.15973 | 1.20964 | 676 ft | 148 kts | 247° |
| 2026-04-24 11:17 | 41.15603 | 1.19693 | 512 ft | 149 kts | 246° |
| 2026-04-24 11:17 | 41.15231 | 1.18390 | 306 ft | 150 kts | 246° |
| 2026-04-24 11:18 | 41.14874 | 1.17178 | 240 ft | 122 kts | 248° |
| 2026-04-24 11:18 | 41.14645 | 1.16395 | 240 ft | 60 kts | 248° |
| 2026-04-24 11:18 | 41.14573 | 1.16149 | 240 ft | 0 kts | 249° |
| 2026-04-24 11:18 | 41.14568 | 1.16132 | 240 ft | 5 kts | 249° |
| 2026-04-24 11:19 | 41.14546 | 1.16057 | 240 ft | 10 kts | 249° |
| 2026-04-24 11:19 | 41.14526 | 1.15945 | 240 ft | 12 kts | 283° |
| 2026-04-24 11:19 | 41.14600 | 1.15883 | 240 ft | 15 kts | 338° |
| 2026-04-24 11:19 | 41.14645 | 1.15840 | 240 ft | 10 kts | 296° |
| 2026-04-24 11:20 | 41.14635 | 1.15744 | 240 ft | 12 kts | 244° |
| 2026-04-24 11:20 | 41.14616 | 1.15688 | 240 ft | 9 kts | 247° |
| 2026-04-24 11:20 | 41.14599 | 1.15625 | 240 ft | 8 kts | 266° |
| 2026-04-24 11:20 | 41.14609 | 1.15593 | 240 ft | 2 kts | 315° |
| 2026-04-24 11:21 | 41.14644 | 1.15571 | 240 ft | 5 kts | 338° |
| 2026-04-24 11:21 | 41.14664 | 1.15561 | 240 ft | 0 kts | 338° |
| 2026-04-24 11:21 | 41.14665 | 1.15560 | 240 ft | 0 kts | 339° |
| 2026-04-24 11:21 | 41.14663 | 1.15561 | 240 ft | 0 kts | 338° |